< < Back
Terminal Aerodrome Forecast


Current Version              Previous Versions:   1  2  3  4  5  6  7  8  9  

Terminal Aerodrome Forecast

704
FTUS42 KCHS 211700
TAFCHS
TAF
KCHS 211734Z 2118/2218 30008KT P6SM SKC
     FM212300 24006KT P6SM SKC
     FM221500 22008KT P6SM SCT045=



Latest METAR

695
SAUS80 KWBC 221200 RRA
MTRCHS
METAR KCHS 221156Z 26005KT 10SM FEW080 22/17 A2999 RMK AO2 SLP155
T02220167 10233 20211 51015


USA.gov is the U.S. government's official web portal to all federal, state and local government web resources and services.